Portland, Pennsylvania
Current Conditions -  °F | °C
As of 12:53 PM on Friday 24 Oct 2014 (Local Time) from KMPO Reporting Station
Clear Clear  
Wind Chill: 56°   Ceiling: Unl
Heat Index: 56°   Visibility: 10mi
Dew Point: 41°   Wind: 18mph
Humidity: 57%   Direction: 310°NW
Pressure: 29.84"   Gusts: 30mph
Location:  40.92°N, 75.1°W
Report Text: KMPO 241653Z AUTO 31016G26KT 10SM CLR 13/05 A2984 RMK AO2 PK WND 33033/1638 SLP106 T01330050
Loading
Personal Weather Stations






























Interactive Weather Map
Tropical Storm Tracking
New forecast layout! Learn more

10-Day Weather Forecast

Advertisements
Track Severe Weather on mobile